Latest Weather Observations for Cairns

IDQ60801

Issued at 3:05 pm EST Friday 25 April 2014 (issued every 30 minutes, with the page automatically refreshed every 10 minutes)

About weather observations | Map of weather stations | Latest weather observations for QLD | Other Formats
Station Details ID: 031011 Name: CAIRNS AERO Lat: -16.87 Lon: 145.75 Height: 2.22 m
Data from the previous 72 hours. | See also: Recent months at Cairns
Date/Time
EST
Temp
°C
App
Temp
°C
Dew
Point
Rel
Hum
%
Delta-T
°C
Wind Press
QNH
hPa
Press
MSL
hPa
Rain
since 9 am
mm
Dir
 
Spd
km/h
Gust
km/h
Spd
kts
Gust
kts
25/03:00pm 24.3 26.7 23.7 96 0.4 SE 17 24 9 13 1010.4 - 8.8
25/02:54pm 24.4 27.2 23.7 96 0.5 SE 15 24 8 13 1010.5 - 7.4
25/02:40pm 24.9 26.7 23.3 91 1.1 SSE 19 26 10 14 1010.5 - 2.8
25/02:30pm 25.7 27.2 23.0 85 1.8 S 20 32 11 17 1010.3 - 1.8
25/02:10pm 25.3 27.6 23.4 89 1.3 S 17 28 9 15 1010.5 - 1.6
25/02:00pm 25.2 27.3 23.1 88 1.4 S 17 26 9 14 1010.7 - 1.6
25/01:30pm 25.2 26.6 22.8 86 1.6 S 20 32 11 17 1010.9 - 1.6
25/01:00pm 25.6 27.6 22.9 85 1.8 S 17 28 9 15 1011.4 - 1.6
25/12:30pm 25.6 27.7 23.8 90 1.2 S 19 32 10 17 1011.8 - 1.6
25/12:00pm 25.7 27.3 22.9 84 1.9 S 19 30 10 16 1012.1 1012.0 1.6
25/11:30am 25.5 26.0 23.3 88 1.5 SSE 26 35 14 19 1012.6 - 1.6
25/11:11am 24.9 24.9 23.0 89 1.3 SSE 28 39 15 21 1012.7 - 1.6
25/11:00am 24.7 25.3 23.5 93 0.8 SSE 26 37 14 20 1012.9 - 1.6
25/10:41am 26.0 27.1 23.7 87 1.6 SSE 24 37 13 20 1012.8 - 1.6
25/10:30am 26.1 28.5 24.2 89 1.3 SSE 19 26 10 14 1013.0 - 1.6
25/10:18am 25.8 27.6 23.6 88 1.5 S 20 28 11 15 1013.1 - 1.6
25/09:59am 25.2 27.2 23.9 92 0.9 SSE 20 28 11 15 1013.2 - 1.6
25/09:38am 24.9 27.7 23.6 92 0.9 SSE 15 19 8 10 1013.1 - 1.0
25/09:30am 25.3 28.2 23.8 91 1.0 S 15 26 8 14 1012.9 - 0.0
25/09:00am 24.8 27.0 23.3 91 1.0 S 17 26 9 14 1012.8 1012.7 53.0
25/08:50am 24.9 27.1 23.3 91 1.1 S 17 26 9 14 1012.7 - 53.0
25/08:30am 24.7 26.8 23.1 91 1.1 S 17 28 9 15 1012.7 - 53.0
25/08:22am 24.9 27.7 23.0 89 1.3 S 13 24 7 13 1012.5 - 52.4
25/08:00am 24.1 26.6 23.2 95 0.6 SSE 15 24 8 13 1012.5 - 51.8
25/07:30am 24.5 26.9 23.0 91 1.0 S 15 20 8 11 1011.9 - 47.8
25/07:00am 24.5 26.5 22.9 91 1.1 SSW 17 24 9 13 1011.6 - 47.2
25/06:30am 24.0 25.7 23.1 95 0.6 SSE 19 26 10 14 1011.2 - 46.2
25/06:14am 24.1 25.7 22.9 93 0.8 SSE 19 26 10 14 1010.9 - 45.4
25/06:00am 24.7 26.5 22.6 88 1.4 S 17 26 9 14 1010.6 1010.5 45.2
25/05:30am 24.1 25.8 23.1 94 0.7 S 19 26 10 14 1010.4 - 45.0
25/05:00am 24.5 26.4 22.7 90 1.2 S 17 24 9 13 1010.1 - 44.4
25/04:30am 24.4 26.3 22.8 91 1.1 S 17 26 9 14 1009.8 - 44.4
25/04:00am 24.8 26.1 22.6 87 1.5 S 20 30 11 16 1009.9 - 44.4
25/03:30am 24.7 26.1 22.5 87 1.5 S 19 32 10 17 1009.9 - 44.4
25/03:00am 24.6 26.3 22.4 87 1.5 S 17 26 9 14 1010.1 1010.0 44.4
25/02:30am 24.8 26.1 22.3 86 1.7 S 19 28 10 15 1010.2 - 44.4
25/02:00am 24.8 26.5 22.4 86 1.6 S 17 26 9 14 1010.5 - 44.4
25/01:30am 24.7 26.1 22.5 87 1.5 S 19 28 10 15 1010.7 - 44.4
25/01:00am 24.9 26.2 22.4 86 1.7 S 19 26 10 14 1011.1 - 44.4
25/12:30am 24.7 26.5 22.5 87 1.5 S 17 30 9 16 1011.4 - 44.4
25/12:00am 24.6 26.1 22.7 89 1.3 S 19 28 10 15 1011.7 1011.6 44.4
 
Date/Time
EST
Temp
°C
App
Temp
°C
Dew
Point
Rel
Hum
%
Delta-T
°C
Wind Press
QNH
hPa
Press
MSL
hPa
Rain
since 9 am
mm
Dir
 
Spd
km/h
Gust
km/h
Spd
kts
Gust
kts
24/11:30pm 24.6 26.5 22.7 89 1.3 S 17 24 9 13 1011.9 - 44.2
24/11:00pm 24.8 26.2 22.6 87 1.5 S 19 32 10 17 1012.3 - 44.2
24/10:30pm 24.7 26.1 22.5 87 1.5 S 19 32 10 17 1012.4 - 43.8
24/10:00pm 24.3 25.9 22.8 91 1.0 S 19 35 10 19 1012.4 - 43.8
24/09:30pm 24.7 26.1 22.5 87 1.5 SSW 19 28 10 15 1012.7 - 43.8
24/09:00pm 23.7 27.7 22.7 94 0.7 W 6 9 3 5 1012.5 1012.4 43.8
24/08:54pm 23.8 27.5 22.6 93 0.8 WSW 7 13 4 7 1012.5 - 43.2
24/08:30pm 23.7 26.3 22.7 94 0.7 S 13 22 7 12 1012.6 - 35.6
24/08:29pm 23.7 26.3 22.7 94 0.7 S 13 22 7 12 1012.6 - 35.6
24/08:15pm 23.9 27.7 22.4 91 1.0 ESE 6 13 3 7 1012.2 - 33.0
24/08:00pm 23.8 27.9 22.3 91 1.0 ESE 4 11 2 6 1012.2 - 32.2
24/07:30pm 23.8 25.1 22.6 93 0.8 S 20 30 11 16 1011.5 - 27.2
24/07:00pm 23.7 26.1 22.2 91 1.0 SSE 13 20 7 11 1011.2 - 27.0
24/06:30pm 23.4 26.1 22.2 93 0.8 S 11 20 6 11 1010.9 - 25.8
24/06:00pm 23.6 25.5 22.1 91 1.0 S 15 26 8 14 1010.8 1010.7 25.2
24/05:30pm 23.5 24.6 22.3 93 0.8 SSW 20 32 11 17 1010.6 - 25.2
24/05:00pm 23.3 24.7 22.6 96 0.5 S 19 32 10 17 1010.3 - 24.6
24/04:30pm 23.2 24.2 22.8 98 0.3 S 22 32 12 17 1010.0 - 24.0
24/04:10pm 23.5 23.9 23.1 98 0.3 SSE 26 37 14 20 1009.9 - 20.4
24/04:00pm 24.3 24.7 23.1 93 0.8 SSE 26 35 14 19 1009.7 - 18.2
24/03:30pm 24.5 26.3 23.3 93 0.8 S 19 28 10 15 1009.6 - 18.0
24/03:00pm 24.7 27.9 23.7 94 0.7 S 13 22 7 12 1009.5 1009.4 18.0
24/02:50pm 24.7 27.8 23.5 93 0.8 S 13 22 7 12 1009.5 - 18.0
24/02:30pm 24.8 27.9 23.6 93 0.8 S 13 22 7 12 1009.7 - 17.8
24/02:00pm 24.3 26.7 23.7 96 0.4 S 17 24 9 13 1009.8 - 15.2
24/01:30pm 24.3 26.9 23.3 94 0.7 S 15 26 8 14 1010.1 - 9.6
24/01:00pm 24.4 26.5 23.7 96 0.5 S 19 30 10 16 1010.3 - 6.2
24/12:54pm 24.9 26.8 23.7 93 0.8 S 20 28 11 15 1010.3 - 5.4
24/12:30pm 24.8 26.2 23.6 93 0.8 S 22 32 12 17 1010.7 - 5.4
24/12:22pm 24.7 26.8 23.7 94 0.7 S 19 30 10 16 1010.9 - 5.4
24/12:00pm 24.8 28.1 23.8 94 0.7 S 13 17 7 9 1011.3 1011.2 4.6
24/11:30am 24.8 28.1 23.9 95 0.6 ESE 13 19 7 10 1011.8 - 3.0
24/11:00am 25.5 27.5 23.6 89 1.3 SSE 19 28 10 15 1012.0 - 0.0
24/10:30am 25.5 26.8 23.3 88 1.5 SSE 22 30 12 16 1012.3 - 0.0
24/10:24am 25.3 26.3 23.5 90 1.2 SSE 24 35 13 19 1012.4 - 0.0
24/10:14am 27.1 28.2 23.0 78 2.8 S 22 30 12 16 1012.3 - 0.0
24/10:00am 26.6 26.9 22.9 80 2.5 SSE 26 33 14 18 1012.4 - 0.0
24/09:30am 26.7 28.7 23.0 80 2.5 S 17 28 9 15 1012.4 - 0.0
24/09:00am 24.9 26.5 22.8 88 1.4 SSE 19 28 10 15 1012.3 1012.2 0.2
24/08:30am 24.7 26.5 22.6 88 1.4 S 17 26 9 14 1012.0 - 0.2
24/08:16am 24.5 26.8 22.7 90 1.2 S 15 20 8 11 1011.9 - 0.2
24/08:00am 24.1 26.0 22.8 92 0.9 SSE 17 28 9 15 1011.9 - 0.2
24/07:51am 24.1 25.5 22.8 92 0.9 SSE 20 28 11 15 1011.9 - 0.2
24/07:30am 24.1 25.1 22.8 92 0.9 SSE 22 33 12 18 1011.6 - 0.2
24/07:00am 24.7 25.6 22.0 85 1.8 S 20 32 11 17 1011.2 - 0.2
24/06:30am 24.6 24.8 22.1 86 1.7 S 24 41 13 22 1010.6 - 0.2
24/06:00am 24.4 24.9 22.0 86 1.6 S 22 33 12 18 1010.5 1010.4 0.2
24/05:30am 24.9 25.4 21.9 83 2.0 S 22 33 12 18 1010.2 - 0.2
24/05:00am 24.9 25.0 21.9 83 2.0 S 24 32 13 17 1010.0 - 0.2
24/04:30am 25.0 24.3 21.8 82 2.1 S 28 44 15 24 1009.4 - 0.2
24/04:00am 24.7 24.1 22.0 85 1.8 SSE 28 37 15 20 1009.6 - 0.2
24/03:30am 24.8 25.8 22.1 85 1.8 SSE 20 30 11 16 1010.1 - 0.2
24/03:00am 24.8 25.9 22.3 86 1.7 S 20 30 11 16 1010.4 1010.3 0.2
24/02:30am 25.0 26.7 22.3 85 1.8 S 17 26 9 14 1010.7 - 0.2
24/02:00am 25.1 27.1 22.3 84 1.9 S 15 24 8 13 1011.1 - 0.2
24/01:30am 25.0 26.1 22.3 85 1.8 SSE 20 28 11 15 1011.1 - 0.2
24/01:00am 25.1 26.2 22.3 84 1.9 SSE 20 26 11 14 1011.7 - 0.2
24/12:30am 25.1 26.3 22.1 83 2.0 S 19 30 10 16 1011.9 - 0.2
24/12:00am 25.4 26.4 22.1 82 2.2 S 20 30 11 16 1012.4 1012.3 0.2
 
Date/Time
EST
Temp
°C
App
Temp
°C
Dew
Point
Rel
Hum
%
Delta-T
°C
Wind Press
QNH
hPa
Press
MSL
hPa
Rain
since 9 am
mm
Dir
 
Spd
km/h
Gust
km/h
Spd
kts
Gust
kts
23/11:30pm 25.5 26.5 22.2 82 2.2 SSE 20 28 11 15 1012.6 - 0.2
23/11:00pm 25.3 26.4 22.3 83 2.0 SSE 20 32 11 17 1012.9 - 0.2
23/10:30pm 25.3 27.3 22.2 83 2.1 SSE 15 26 8 14 1013.1 - 0.2
23/10:00pm 25.5 26.1 22.1 81 2.3 S 22 41 12 22 1012.8 - 0.2
23/09:30pm 25.4 25.6 22.0 81 2.3 S 24 35 13 19 1012.8 - 0.2
23/09:00pm 25.1 27.1 22.3 84 1.9 S 15 24 8 13 1012.6 1012.5 0.2
23/08:30pm 25.6 25.7 21.9 80 2.5 S 24 33 13 18 1012.5 - 0.2
23/08:00pm 25.4 27.1 22.4 83 2.0 S 17 28 9 15 1012.4 - 0.2
23/07:30pm 25.3 27.3 22.3 83 2.0 SSE 15 22 8 12 1011.8 - 0.2
23/07:00pm 25.5 27.6 22.5 83 2.0 SSE 15 19 8 10 1011.4 - 0.2
23/06:30pm 25.8 27.2 22.5 82 2.2 SSE 19 26 10 14 1011.3 - 0.2
23/06:00pm 26.2 29.0 23.0 82 2.2 S 13 19 7 10 1011.2 1011.1 0.2
23/05:30pm 26.8 28.7 22.8 79 2.7 S 17 24 9 13 1011.0 - 0.2
23/05:00pm 27.2 28.0 22.5 75 3.2 SE 22 28 12 15 1010.7 - 0.2
23/04:30pm 27.5 28.4 22.6 74 3.3 SE 22 30 12 16 1010.5 - 0.2
23/04:00pm 27.8 28.1 22.2 71 3.8 SE 24 33 13 18 1010.3 - 0.2
23/03:30pm 28.2 28.6 22.4 71 3.9 SE 24 33 13 18 1010.4 - 0.2
23/03:00pm 28.3 27.9 22.4 70 4.0 SE 28 33 15 18 1010.5 1010.4 0.2
23/02:30pm 29.1 29.1 23.0 69 4.2 SE 28 35 15 19 1010.6 - 0.0
23/02:00pm 28.0 27.6 22.4 71 3.8 SE 28 35 15 19 1010.8 - 0.0
23/01:30pm 28.8 28.3 22.9 70 4.0 SSE 30 35 16 19 1011.0 - 0.0
23/01:00pm 28.0 28.7 22.9 74 3.5 SSE 24 37 13 20 1011.4 - 0.0
23/12:30pm 27.6 27.2 22.3 73 3.6 SSE 28 33 15 18 1011.9 - 0.0
23/12:00pm 27.3 28.1 23.2 78 2.8 SE 24 33 13 18 1012.4 1012.3 0.0
23/11:30am 27.5 26.8 22.5 74 3.4 SE 30 39 16 21 1012.8 - 0.0
23/11:00am 28.5 28.9 23.1 72 3.7 SSE 26 37 14 20 1013.1 - 0.0
23/10:30am 27.1 28.8 23.1 79 2.7 S 19 28 10 15 1013.4 - 0.0
23/10:00am 26.4 28.4 23.0 81 2.3 S 17 24 9 13 1013.6 - 0.0
23/09:30am 25.6 28.1 23.1 86 1.7 S 15 28 8 15 1013.7 - 0.0
23/09:00am 25.5 27.9 23.0 86 1.7 S 15 28 8 15 1013.5 1013.4 0.4
23/08:30am 25.5 27.2 23.1 86 1.6 S 19 28 10 15 1013.2 - 0.4
23/08:00am 24.3 25.7 22.8 91 1.0 S 20 30 11 16 1013.2 - 0.4
23/07:30am 24.5 25.8 22.6 89 1.3 S 20 30 11 16 1013.0 - 0.4
23/07:10am 24.3 25.4 22.4 89 1.3 S 20 32 11 17 1012.7 - 0.4
23/07:00am 24.3 25.5 22.2 88 1.4 S 19 30 10 16 1012.4 - 0.4
23/06:30am 24.2 25.3 22.3 89 1.3 SSE 20 26 11 14 1012.3 - 0.4
23/06:00am 24.3 25.2 22.0 87 1.5 S 20 30 11 16 1011.9 1011.8 0.4
23/05:30am 24.2 25.2 22.1 88 1.4 S 20 33 11 18 1011.5 - 0.4
23/05:00am 24.1 25.0 22.0 88 1.4 S 20 30 11 16 1011.7 - 0.4
23/04:30am 24.1 24.4 22.2 89 1.3 S 24 32 13 17 1011.7 - 0.4
23/04:00am 24.1 25.2 22.0 88 1.4 S 19 30 10 16 1011.7 - 0.4
23/03:30am 24.1 24.6 22.0 88 1.4 S 22 33 12 18 1011.7 - 0.4
23/03:00am 23.9 25.0 21.9 88 1.3 S 19 28 10 15 1012.1 1012.0 0.4
23/02:30am 24.3 24.6 21.6 85 1.8 SSE 22 32 12 17 1012.1 - 0.4
23/02:00am 24.5 25.3 21.3 82 2.1 S 19 26 10 14 1012.5 - 0.4
23/01:30am 24.5 25.1 21.3 82 2.1 S 20 30 11 16 1012.9 - 0.4
23/01:00am 24.4 25.0 21.4 83 2.0 S 20 33 11 18 1013.2 - 0.4
23/12:30am 24.4 24.9 21.2 82 2.1 S 20 32 11 17 1013.8 - 0.4
23/12:00am 24.5 24.9 21.0 81 2.3 S 20 32 11 17 1014.1 1014.0 0.4
 
Date/Time
EST
Temp
°C
App
Temp
°C
Dew
Point
Rel
Hum
%
Delta-T
°C
Wind Press
QNH
hPa
Press
MSL
hPa
Rain
since 9 am
mm
Dir
 
Spd
km/h
Gust
km/h
Spd
kts
Gust
kts
22/11:30pm 24.1 24.6 21.1 83 2.0 S 20 33 11 18 1014.2 - 0.4
22/11:00pm 24.2 25.3 21.2 83 2.0 S 17 26 9 14 1014.5 - 0.4
22/10:30pm 24.0 25.3 21.7 87 1.5 S 17 26 9 14 1014.7 - 0.4
22/10:00pm 24.1 24.6 21.2 84 1.9 SSE 20 28 11 15 1014.9 - 0.4
22/09:30pm 24.4 25.3 21.5 84 1.9 SSE 19 28 10 15 1015.0 - 0.4
22/09:00pm 24.7 25.9 21.4 82 2.2 S 17 20 9 11 1014.8 1014.7 0.4
22/08:30pm 24.4 25.4 21.7 85 1.8 S 19 28 10 15 1014.7 - 0.4
22/08:00pm 24.5 25.8 21.6 84 1.9 S 17 26 9 14 1014.6 - 0.4
22/07:30pm 24.5 26.1 21.5 83 2.0 SSE 15 20 8 11 1014.3 - 0.4
22/07:00pm 24.6 26.6 21.6 83 2.0 SSE 13 17 7 9 1013.9 - 0.4
22/06:30pm 24.8 25.9 21.2 80 2.4 S 17 26 9 14 1013.7 - 0.4
22/06:00pm 24.4 26.2 21.2 82 2.1 S 13 20 7 11 1014.0 1013.9 0.4
22/05:30pm 24.5 25.6 21.3 82 2.1 S 17 28 9 15 1013.7 - 0.4
22/05:00pm 25.0 26.5 21.2 79 2.5 S 15 22 8 12 1013.5 - 0.4
22/04:30pm 25.4 27.7 22.0 81 2.3 S 13 19 7 10 1013.3 - 0.4
22/04:00pm 25.8 26.0 21.3 76 3.0 SSE 22 30 12 16 1013.1 - 0.4
22/03:30pm 26.4 27.8 21.9 76 3.0 S 17 26 9 14 1013.0 - 0.4

Other Formats:

Comma delimited format used in spreadsheet applications
http://www.bom.gov.au/fwo/IDQ60801/IDQ60801.94287.axf

JavaScript Object Notation format (JSON) in row-major order
http://www.bom.gov.au/fwo/IDQ60801/IDQ60801.94287.json